createdAt,value
2023-03-29T00:00:22.393Z,3.28
2023-03-29T00:05:49.073Z,3.47
2023-03-29T00:10:59.475Z,2.72
2023-03-29T00:16:07.963Z,3.25
2023-03-29T00:21:14.285Z,3.22
2023-03-29T00:26:22.146Z,3.60
2023-03-29T00:31:29.831Z,4.00
2023-03-29T00:36:36.645Z,3.67
2023-03-29T00:41:45.745Z,3.83
2023-03-29T00:46:52.517Z,3.85
2023-03-29T00:51:59.362Z,3.63
2023-03-29T00:57:09.769Z,3.80
2023-03-29T01:02:18.283Z,3.78
2023-03-29T01:12:42.825Z,3.40
2023-03-29T01:17:51.077Z,3.90
2023-03-29T01:23:19.486Z,3.15
2023-03-29T01:28:33.432Z,3.85
2023-03-29T01:33:45.524Z,3.42
2023-03-29T01:38:57.573Z,3.65
2023-03-29T01:44:11.008Z,3.28
2023-03-29T01:49:24.984Z,3.28
2023-03-29T01:54:37.115Z,3.15
2023-03-29T01:59:48.943Z,3.28
2023-03-29T02:04:57.838Z,3.35
2023-03-29T02:10:05.436Z,3.30
2023-03-29T02:15:19.561Z,2.78
2023-03-29T02:20:32.320Z,3.70
2023-03-29T02:25:38.963Z,3.03
2023-03-29T02:30:53.808Z,3.05
2023-03-29T02:36:05.136Z,3.40
2023-03-29T02:42:30.817Z,3.10
2023-03-29T02:47:45.870Z,3.03
2023-03-29T02:52:59.629Z,2.88
2023-03-29T02:58:08.949Z,3.30
2023-03-29T03:03:18.383Z,3.45
2023-03-29T03:08:28.309Z,3.38
2023-03-29T03:13:34.870Z,3.83
2023-03-29T03:18:43.414Z,3.25
2023-03-29T03:23:50.715Z,3.58
2023-03-29T03:28:57.561Z,3.60
2023-03-29T03:34:26.590Z,3.35
2023-03-29T03:39:37.098Z,3.90
2023-03-29T03:44:45.817Z,3.50
2023-03-29T03:50:14.401Z,3.60
2023-03-29T03:55:22.373Z,3.58
2023-03-29T04:00:31.940Z,3.15
2023-03-29T04:06:05.307Z,3.72
2023-03-29T04:11:32.273Z,4.85
2023-03-29T04:16:38.824Z,3.85
2023-03-29T04:22:09.737Z,4.05
2023-03-29T04:27:16.895Z,3.78
2023-03-29T04:32:25.667Z,3.45
2023-03-29T04:37:40.645Z,3.42
2023-03-29T04:42:50.105Z,3.90
2023-03-29T04:48:03.125Z,3.67
2023-03-29T04:53:11.777Z,3.63
2023-03-29T04:58:20.773Z,3.25
2023-03-29T05:03:29.628Z,3.08
2023-03-29T05:08:42.878Z,3.60
2023-03-29T05:14:02.755Z,3.67
2023-03-29T05:19:13.377Z,3.85
2023-03-29T05:24:26.643Z,4.05
2023-03-29T05:29:37.091Z,3.05
2023-03-29T05:35:07.416Z,3.60
2023-03-29T05:40:16.484Z,3.17
2023-03-29T05:45:45.093Z,4.18
2023-03-29T05:50:56.565Z,3.63
2023-03-29T05:56:05.512Z,4.05
2023-03-29T06:01:14.898Z,4.13
2023-03-29T06:06:34.348Z,4.45
2023-03-29T06:11:42.522Z,3.67
2023-03-29T06:17:02.080Z,4.53
2023-03-29T06:22:08.564Z,5.32
2023-03-29T06:27:16.361Z,4.97
2023-03-29T06:32:23.744Z,4.70
2023-03-29T06:37:36.774Z,4.65
2023-03-29T06:42:59.743Z,4.00
2023-03-29T06:48:24.752Z,4.00
2023-03-29T06:53:31.739Z,3.60
2023-03-29T06:58:42.996Z,3.20
2023-03-29T07:04:09.703Z,4.00
2023-03-29T07:09:36.254Z,3.92
2023-03-29T07:15:13.730Z,3.58
2023-03-29T07:20:47.932Z,3.35
2023-03-29T07:25:54.810Z,3.87
2023-03-29T07:31:07.764Z,3.85
2023-03-29T07:36:19.989Z,3.25
2023-03-29T07:41:26.998Z,2.45
2023-03-29T07:46:53.109Z,2.67
2023-03-29T07:51:59.997Z,2.70
2023-03-29T07:57:07.145Z,2.30
2023-03-29T08:02:21.461Z,2.17
2023-03-29T08:07:31.278Z,2.47
2023-03-29T08:12:40.579Z,2.30
2023-03-29T08:17:48.970Z,3.03
2023-03-29T08:22:57.557Z,3.13
2023-03-29T08:28:29.964Z,2.60
2023-03-29T08:33:38.726Z,2.17
2023-03-29T08:39:08.336Z,2.42
2023-03-29T08:49:42.275Z,1.75
2023-03-29T08:54:54.303Z,1.60
2023-03-29T09:00:19.504Z,1.33
2023-03-29T09:05:32.232Z,1.50
2023-03-29T09:10:57.646Z,0.80
2023-03-29T09:16:14.128Z,1.27
2023-03-29T09:21:35.487Z,0.85
2023-03-29T09:26:48.365Z,1.00
2023-03-29T09:32:24.092Z,1.30
2023-03-29T09:37:42.119Z,1.65
2023-03-29T09:42:54.016Z,2.55
2023-03-29T09:48:08.422Z,2.03
2023-03-29T09:53:19.006Z,2.03
2023-03-29T09:58:36.324Z,1.33
2023-03-29T10:03:44.010Z,2.22
2023-03-29T10:08:59.246Z,2.17
2023-03-29T10:14:19.503Z,2.00
2023-03-29T10:19:31.328Z,1.55
2023-03-29T10:24:39.320Z,1.45
2023-03-29T10:29:47.133Z,1.45
2023-03-29T10:34:54.630Z,1.60
2023-03-29T10:40:02.768Z,2.10
2023-03-29T10:45:27.483Z,3.75
2023-03-29T10:50:38.432Z,2.20
2023-03-29T10:55:57.705Z,2.97
2023-03-29T11:01:05.722Z,2.50
2023-03-29T11:06:25.024Z,2.30
2023-03-29T11:12:14.464Z,3.10
2023-03-29T11:17:39.830Z,2.75
2023-03-29T11:22:57.724Z,3.60
2023-03-29T11:28:15.652Z,2.17
2023-03-29T11:33:48.852Z,2.83
2023-03-29T11:39:06.182Z,2.70
2023-03-29T11:44:21.431Z,2.88
2023-03-29T11:49:33.837Z,3.03
2023-03-29T11:54:45.216Z,2.95
2023-03-29T12:00:00.830Z,3.33
2023-03-29T12:05:18.324Z,3.03
2023-03-29T12:10:28.649Z,3.08
2023-03-29T12:15:43.002Z,2.65
2023-03-29T12:20:55.229Z,4.07
2023-03-29T12:26:12.361Z,3.58
2023-03-29T12:31:29.467Z,2.72
2023-03-29T12:37:22.329Z,2.60
2023-03-29T12:42:49.746Z,2.58
2023-03-29T12:48:21.083Z,2.30
2023-03-29T12:53:33.382Z,2.42
2023-03-29T12:59:08.529Z,2.75
2023-03-29T13:04:20.821Z,2.90
2023-03-29T13:09:30.221Z,1.95
2023-03-29T13:14:39.408Z,2.40
2023-03-29T13:25:25.657Z,2.15
2023-03-29T13:30:47.511Z,1.60
2023-03-29T13:36:05.094Z,1.40
2023-03-29T13:41:30.265Z,1.48
2023-03-29T13:46:43.215Z,1.65
2023-03-29T13:52:16.718Z,1.20
2023-03-29T13:57:27.668Z,1.45
2023-03-29T14:02:42.481Z,1.17
2023-03-29T14:07:55.067Z,2.53
2023-03-29T14:13:04.356Z,1.35
2023-03-29T14:23:24.470Z,1.20
2023-03-29T14:28:31.552Z,1.52
2023-03-29T14:33:38.474Z,1.73
2023-03-29T14:38:50.353Z,1.48
2023-03-29T14:43:57.866Z,2.13
2023-03-29T14:49:06.602Z,1.40
2023-03-29T14:54:22.428Z,1.40
2023-03-29T14:59:36.971Z,1.48
2023-03-29T15:04:43.931Z,2.45
2023-03-29T15:09:52.127Z,1.83
2023-03-29T15:14:58.826Z,2.30
2023-03-29T15:20:14.368Z,1.95
2023-03-29T15:25:23.674Z,1.83
2023-03-29T15:30:39.659Z,1.90
2023-03-29T15:35:52.235Z,1.80
2023-03-29T15:41:00.867Z,1.92
2023-03-29T15:46:08.684Z,2.30
2023-03-29T15:51:15.940Z,1.80
2023-03-29T15:56:23.982Z,2.13
2023-03-29T16:01:36.072Z,1.70
2023-03-29T16:06:43.763Z,1.90
2023-03-29T16:11:52.427Z,2.30
2023-03-29T16:16:59.651Z,1.88
2023-03-29T16:22:07.747Z,2.38
2023-03-29T16:27:15.669Z,2.88
2023-03-29T16:32:22.437Z,2.03
2023-03-29T16:37:29.114Z,2.00
2023-03-29T16:42:37.938Z,2.08
2023-03-29T16:47:46.121Z,1.90
2023-03-29T16:52:52.978Z,2.40
2023-03-29T16:58:01.126Z,1.90
2023-03-29T17:03:08.447Z,2.10
2023-03-29T17:08:16.376Z,3.05
2023-03-29T17:13:24.648Z,5.28
2023-03-29T17:18:32.009Z,5.97
2023-03-29T17:23:39.323Z,4.32
2023-03-29T17:28:49.908Z,4.50
2023-03-29T17:33:57.233Z,4.97
2023-03-29T17:39:10.032Z,3.92
2023-03-29T17:44:19.191Z,6.13
2023-03-29T17:49:28.113Z,5.43
2023-03-29T17:54:36.509Z,18.30
2023-03-29T17:59:45.858Z,11.43
2023-03-29T18:04:54.163Z,9.88
2023-03-29T18:10:03.321Z,8.25
2023-03-29T18:15:14.968Z,7.78
2023-03-29T18:20:24.604Z,12.02
2023-03-29T18:25:32.608Z,15.48
2023-03-29T18:30:43.738Z,17.50
2023-03-29T18:35:53.445Z,12.57
2023-03-29T18:41:02.296Z,14.80
2023-03-29T18:46:15.078Z,19.48
2023-03-29T18:51:24.637Z,42.95
2023-03-29T18:56:34.868Z,58.78
2023-03-29T19:01:46.565Z,55.33
2023-03-29T19:06:56.487Z,48.08
2023-03-29T19:12:06.580Z,21.52
2023-03-29T19:17:17.787Z,19.85
2023-03-29T19:22:26.766Z,19.55
2023-03-29T19:27:37.584Z,17.15
2023-03-29T19:32:49.629Z,18.95
2023-03-29T19:38:02.338Z,19.38
2023-03-29T19:43:18.407Z,18.52
2023-03-29T19:48:30.484Z,18.90
2023-03-29T19:53:41.897Z,19.33
2023-03-29T19:58:50.010Z,18.98
2023-03-29T20:04:00.179Z,18.77
2023-03-29T20:09:09.594Z,15.98
2023-03-29T20:14:17.935Z,13.67
2023-03-29T20:19:30.630Z,16.05
2023-03-29T20:24:38.581Z,17.80
2023-03-29T20:29:46.188Z,20.95
2023-03-29T20:34:54.640Z,24.92
2023-03-29T20:40:01.208Z,21.93
2023-03-29T20:45:18.899Z,26.23
2023-03-29T20:50:27.898Z,30.92
2023-03-29T20:55:35.691Z,30.83
2023-03-29T21:00:42.778Z,20.98
2023-03-29T21:05:55.053Z,22.02
2023-03-29T21:11:02.670Z,17.98
2023-03-29T21:16:11.161Z,15.40
2023-03-29T21:21:19.649Z,19.67
2023-03-29T21:26:26.744Z,19.73
2023-03-29T21:31:33.696Z,19.92
2023-03-29T21:36:42.817Z,19.80
2023-03-29T21:46:55.642Z,19.15
2023-03-29T21:52:04.010Z,20.25
2023-03-29T21:57:10.691Z,21.23
2023-03-29T22:02:17.830Z,16.75
2023-03-29T22:07:25.835Z,18.15
2023-03-29T22:12:34.798Z,15.40
2023-03-29T22:17:43.116Z,15.82
2023-03-29T22:22:52.584Z,12.60
2023-03-29T22:27:59.079Z,15.60
2023-03-29T22:33:05.616Z,13.02
2023-03-29T22:38:13.666Z,12.05
2023-03-29T22:43:20.343Z,11.32
2023-03-29T22:48:27.088Z,9.50
2023-03-29T22:53:35.564Z,9.43
2023-03-29T22:58:42.106Z,8.70
2023-03-29T23:03:50.054Z,8.95
2023-03-29T23:08:58.106Z,8.63
2023-03-29T23:14:05.494Z,6.40
2023-03-29T23:19:12.217Z,8.20
2023-03-29T23:24:20.139Z,8.38
2023-03-29T23:29:26.652Z,8.70
2023-03-29T23:34:33.546Z,7.82
2023-03-29T23:39:41.985Z,7.05
2023-03-29T23:44:48.660Z,7.40
2023-03-29T23:49:55.351Z,7.63
2023-03-29T23:55:03.446Z,7.05
